Rose Valley, Nevada
Current Conditions -  °F | °C
As of 7:53 PM on Tuesday 21 Oct 2014 (Local Time) from KELY Reporting Station
Clear Clear  
Wind Chill: 40°   Ceiling: Unl
Heat Index: 45°   Visibility: 10mi
Dew Point:   Wind: 10mph
Humidity: 23%   Direction: 290°WNW
Pressure: 30.08"   Gusts: NA
Location:  38.2635°N, 114.484°W
Report Text: KELY 220253Z AUTO 29009KT 10SM CLR 07/M13 A3008 RMK AO2 SLP140 T00721128 51009
Loading
Personal Weather Stations






























Interactive Weather Map
Tropical Storm Tracking
New forecast layout! Learn more

10-Day Weather Forecast

Advertisements
Track Severe Weather on mobile